sensor_id;sensor_type;location;lat;lon;timestamp;P1;durP1;ratioP1;P2;durP2;ratioP2
4601;SDS011;2313;48.552;9.370;2023-09-18T00:00:00;3.90;;;2.53;;
4601;SDS011;2313;48.552;9.370;2023-09-18T00:02:27;4.20;;;2.20;;
4601;SDS011;2313;48.552;9.370;2023-09-18T00:04:54;4.77;;;2.43;;
4601;SDS011;2313;48.552;9.370;2023-09-18T00:07:20;2.40;;;2.20;;
4601;SDS011;2313;48.552;9.370;2023-09-18T00:09:45;13.90;;;2.93;;
4601;SDS011;2313;48.552;9.370;2023-09-18T00:12:11;10.97;;;2.60;;
4601;SDS011;2313;48.552;9.370;2023-09-18T00:14:37;9.10;;;3.83;;
4601;SDS011;2313;48.552;9.370;2023-09-18T00:17:03;5.40;;;2.53;;
4601;SDS011;2313;48.552;9.370;2023-09-18T00:19:28;4.93;;;2.43;;
4601;SDS011;2313;48.552;9.370;2023-09-18T00:21:55;6.47;;;2.40;;
4601;SDS011;2313;48.552;9.370;2023-09-18T00:24:21;8.40;;;2.73;;
4601;SDS011;2313;48.552;9.370;2023-09-18T00:26:47;13.43;;;3.23;;
4601;SDS011;2313;48.552;9.370;2023-09-18T00:29:13;6.17;;;2.93;;
4601;SDS011;2313;48.552;9.370;2023-09-18T00:31:39;6.70;;;2.87;;
4601;SDS011;2313;48.552;9.370;2023-09-18T00:34:05;8.97;;;3.00;;
4601;SDS011;2313;48.552;9.370;2023-09-18T00:36:30;3.90;;;2.33;;
4601;SDS011;2313;48.552;9.370;2023-09-18T00:38:56;4.13;;;2.50;;
4601;SDS011;2313;48.552;9.370;2023-09-18T00:41:22;11.83;;;3.40;;
4601;SDS011;2313;48.552;9.370;2023-09-18T00:43:47;4.63;;;2.70;;
4601;SDS011;2313;48.552;9.370;2023-09-18T00:46:13;3.20;;;2.87;;
4601;SDS011;2313;48.552;9.370;2023-09-18T00:48:39;9.70;;;2.83;;
4601;SDS011;2313;48.552;9.370;2023-09-18T00:51:04;6.10;;;2.73;;
4601;SDS011;2313;48.552;9.370;2023-09-18T00:53:31;5.03;;;2.40;;
4601;SDS011;2313;48.552;9.370;2023-09-18T00:55:57;5.23;;;2.50;;
4601;SDS011;2313;48.552;9.370;2023-09-18T00:58:25;7.50;;;3.57;;
4601;SDS011;2313;48.552;9.370;2023-09-18T01:00:51;6.20;;;2.80;;
4601;SDS011;2313;48.552;9.370;2023-09-18T01:03:17;9.37;;;2.43;;
4601;SDS011;2313;48.552;9.370;2023-09-18T01:05:45;5.20;;;2.57;;
4601;SDS011;2313;48.552;9.370;2023-09-18T01:08:10;11.53;;;3.43;;
4601;SDS011;2313;48.552;9.370;2023-09-18T01:10:39;6.93;;;2.77;;
4601;SDS011;2313;48.552;9.370;2023-09-18T01:13:14;5.43;;;2.60;;
4601;SDS011;2313;48.552;9.370;2023-09-18T01:15:49;6.10;;;2.67;;
4601;SDS011;2313;48.552;9.370;2023-09-18T01:18:19;8.50;;;2.33;;
4601;SDS011;2313;48.552;9.370;2023-09-18T01:20:44;3.97;;;2.40;;
4601;SDS011;2313;48.552;9.370;2023-09-18T01:23:10;11.10;;;2.60;;
4601;SDS011;2313;48.552;9.370;2023-09-18T01:25:38;4.00;;;2.30;;
4601;SDS011;2313;48.552;9.370;2023-09-18T01:28:04;3.60;;;2.30;;
4601;SDS011;2313;48.552;9.370;2023-09-18T01:30:30;7.20;;;2.80;;
4601;SDS011;2313;48.552;9.370;2023-09-18T01:32:55;5.73;;;2.57;;
4601;SDS011;2313;48.552;9.370;2023-09-18T01:35:23;7.17;;;2.27;;
4601;SDS011;2313;48.552;9.370;2023-09-18T01:37:55;9.07;;;2.60;;
4601;SDS011;2313;48.552;9.370;2023-09-18T01:40:22;5.13;;;2.50;;
4601;SDS011;2313;48.552;9.370;2023-09-18T01:42:48;6.60;;;2.37;;
4601;SDS011;2313;48.552;9.370;2023-09-18T01:45:14;9.57;;;3.67;;
4601;SDS011;2313;48.552;9.370;2023-09-18T01:47:39;8.53;;;2.73;;
4601;SDS011;2313;48.552;9.370;2023-09-18T01:50:05;7.07;;;2.90;;
4601;SDS011;2313;48.552;9.370;2023-09-18T01:52:31;7.90;;;3.00;;
4601;SDS011;2313;48.552;9.370;2023-09-18T01:54:59;11.37;;;2.53;;
4601;SDS011;2313;48.552;9.370;2023-09-18T01:57:25;8.83;;;2.73;;
4601;SDS011;2313;48.552;9.370;2023-09-18T01:59:50;8.30;;;2.70;;
4601;SDS011;2313;48.552;9.370;2023-09-18T02:02:16;4.47;;;2.30;;
4601;SDS011;2313;48.552;9.370;2023-09-18T02:04:42;8.13;;;3.10;;
4601;SDS011;2313;48.552;9.370;2023-09-18T02:07:08;8.07;;;3.00;;
4601;SDS011;2313;48.552;9.370;2023-09-18T02:09:34;7.13;;;2.67;;
4601;SDS011;2313;48.552;9.370;2023-09-18T02:11:59;8.57;;;3.00;;
4601;SDS011;2313;48.552;9.370;2023-09-18T02:14:25;5.80;;;3.03;;
4601;SDS011;2313;48.552;9.370;2023-09-18T02:16:51;8.60;;;2.83;;
4601;SDS011;2313;48.552;9.370;2023-09-18T02:19:16;4.10;;;2.70;;
4601;SDS011;2313;48.552;9.370;2023-09-18T02:21:43;12.10;;;3.63;;
4601;SDS011;2313;48.552;9.370;2023-09-18T02:24:09;7.97;;;3.20;;
4601;SDS011;2313;48.552;9.370;2023-09-18T02:26:34;7.30;;;3.00;;
4601;SDS011;2313;48.552;9.370;2023-09-18T02:29:01;4.80;;;2.97;;
4601;SDS011;2313;48.552;9.370;2023-09-18T02:31:28;5.57;;;3.03;;
4601;SDS011;2313;48.552;9.370;2023-09-18T02:33:54;12.53;;;3.30;;
4601;SDS011;2313;48.552;9.370;2023-09-18T02:36:20;5.33;;;2.93;;
4601;SDS011;2313;48.552;9.370;2023-09-18T02:38:46;6.53;;;2.40;;
4601;SDS011;2313;48.552;9.370;2023-09-18T02:41:11;4.30;;;2.70;;
4601;SDS011;2313;48.552;9.370;2023-09-18T02:43:37;11.93;;;3.00;;
4601;SDS011;2313;48.552;9.370;2023-09-18T02:46:03;4.57;;;2.77;;
4601;SDS011;2313;48.552;9.370;2023-09-18T02:48:30;5.37;;;2.93;;
4601;SDS011;2313;48.552;9.370;2023-09-18T02:50:56;5.83;;;2.50;;
4601;SDS011;2313;48.552;9.370;2023-09-18T02:53:23;4.57;;;2.77;;
4601;SDS011;2313;48.552;9.370;2023-09-18T02:55:50;4.07;;;2.67;;
4601;SDS011;2313;48.552;9.370;2023-09-18T02:58:18;6.30;;;2.47;;
4601;SDS011;2313;48.552;9.370;2023-09-18T03:00:48;12.10;;;2.77;;
4601;SDS011;2313;48.552;9.370;2023-09-18T03:03:15;5.00;;;2.60;;
4601;SDS011;2313;48.552;9.370;2023-09-18T03:05:42;6.03;;;3.30;;
4601;SDS011;2313;48.552;9.370;2023-09-18T03:08:08;7.73;;;3.13;;
4601;SDS011;2313;48.552;9.370;2023-09-18T03:10:36;7.63;;;3.07;;
4601;SDS011;2313;48.552;9.370;2023-09-18T03:13:06;6.37;;;3.23;;
4601;SDS011;2313;48.552;9.370;2023-09-18T03:15:33;7.13;;;2.60;;
4601;SDS011;2313;48.552;9.370;2023-09-18T03:17:59;5.80;;;3.23;;
4601;SDS011;2313;48.552;9.370;2023-09-18T03:20:26;3.57;;;2.90;;
4601;SDS011;2313;48.552;9.370;2023-09-18T03:22:54;7.03;;;2.63;;
4601;SDS011;2313;48.552;9.370;2023-09-18T03:25:21;5.90;;;2.50;;
4601;SDS011;2313;48.552;9.370;2023-09-18T03:27:47;5.83;;;2.67;;
4601;SDS011;2313;48.552;9.370;2023-09-18T03:30:13;8.90;;;2.63;;
4601;SDS011;2313;48.552;9.370;2023-09-18T03:32:41;11.83;;;2.90;;
4601;SDS011;2313;48.552;9.370;2023-09-18T03:35:07;8.43;;;3.10;;
4601;SDS011;2313;48.552;9.370;2023-09-18T03:37:40;7.60;;;2.83;;
4601;SDS011;2313;48.552;9.370;2023-09-18T03:40:06;3.40;;;2.87;;
4601;SDS011;2313;48.552;9.370;2023-09-18T03:42:33;8.20;;;3.57;;
4601;SDS011;2313;48.552;9.370;2023-09-18T03:44:59;8.00;;;2.80;;
4601;SDS011;2313;48.552;9.370;2023-09-18T03:47:25;10.70;;;3.40;;
4601;SDS011;2313;48.552;9.370;2023-09-18T03:49:50;8.70;;;3.40;;
4601;SDS011;2313;48.552;9.370;2023-09-18T03:52:16;7.83;;;2.93;;
4601;SDS011;2313;48.552;9.370;2023-09-18T03:54:41;6.90;;;2.67;;
4601;SDS011;2313;48.552;9.370;2023-09-18T03:57:07;4.27;;;3.00;;
4601;SDS011;2313;48.552;9.370;2023-09-18T03:59:33;6.50;;;2.93;;
4601;SDS011;2313;48.552;9.370;2023-09-18T04:01:58;10.30;;;3.20;;
4601;SDS011;2313;48.552;9.370;2023-09-18T04:04:24;7.97;;;3.00;;
4601;SDS011;2313;48.552;9.370;2023-09-18T04:06:49;8.20;;;2.37;;
4601;SDS011;2313;48.552;9.370;2023-09-18T04:09:15;7.97;;;3.07;;
4601;SDS011;2313;48.552;9.370;2023-09-18T04:11:40;6.47;;;2.60;;
4601;SDS011;2313;48.552;9.370;2023-09-18T04:14:06;5.87;;;2.23;;
4601;SDS011;2313;48.552;9.370;2023-09-18T04:16:32;4.50;;;2.50;;
4601;SDS011;2313;48.552;9.370;2023-09-18T04:19:01;6.93;;;2.27;;
4601;SDS011;2313;48.552;9.370;2023-09-18T04:21:27;12.63;;;2.80;;
4601;SDS011;2313;48.552;9.370;2023-09-18T04:23:54;10.97;;;2.80;;
4601;SDS011;2313;48.552;9.370;2023-09-18T04:26:25;8.17;;;3.07;;
4601;SDS011;2313;48.552;9.370;2023-09-18T04:28:56;9.87;;;2.60;;
4601;SDS011;2313;48.552;9.370;2023-09-18T04:31:22;14.90;;;3.37;;
4601;SDS011;2313;48.552;9.370;2023-09-18T04:33:48;6.90;;;3.27;;
4601;SDS011;2313;48.552;9.370;2023-09-18T04:36:13;16.60;;;3.13;;
4601;SDS011;2313;48.552;9.370;2023-09-18T04:38:39;12.73;;;2.87;;
4601;SDS011;2313;48.552;9.370;2023-09-18T04:41:04;9.00;;;3.00;;
4601;SDS011;2313;48.552;9.370;2023-09-18T04:43:33;17.63;;;3.43;;
4601;SDS011;2313;48.552;9.370;2023-09-18T04:45:59;10.67;;;3.63;;
4601;SDS011;2313;48.552;9.370;2023-09-18T04:48:27;9.53;;;3.20;;
4601;SDS011;2313;48.552;9.370;2023-09-18T04:50:52;17.57;;;3.17;;
4601;SDS011;2313;48.552;9.370;2023-09-18T04:53:18;11.13;;;2.67;;
4601;SDS011;2313;48.552;9.370;2023-09-18T04:55:43;9.43;;;2.90;;
4601;SDS011;2313;48.552;9.370;2023-09-18T04:58:14;10.67;;;2.83;;
4601;SDS011;2313;48.552;9.370;2023-09-18T05:00:40;13.50;;;2.73;;
4601;SDS011;2313;48.552;9.370;2023-09-18T05:03:06;15.40;;;3.13;;
4601;SDS011;2313;48.552;9.370;2023-09-18T05:05:36;15.90;;;3.50;;
4601;SDS011;2313;48.552;9.370;2023-09-18T05:08:02;13.70;;;3.37;;
4601;SDS011;2313;48.552;9.370;2023-09-18T05:10:32;6.40;;;2.23;;
4601;SDS011;2313;48.552;9.370;2023-09-18T05:12:58;8.47;;;2.30;;
4601;SDS011;2313;48.552;9.370;2023-09-18T05:15:24;6.90;;;2.47;;
4601;SDS011;2313;48.552;9.370;2023-09-18T05:17:57;5.87;;;2.30;;
4601;SDS011;2313;48.552;9.370;2023-09-18T05:20:24;10.77;;;2.67;;
4601;SDS011;2313;48.552;9.370;2023-09-18T05:22:51;13.40;;;3.30;;
4601;SDS011;2313;48.552;9.370;2023-09-18T05:25:24;14.27;;;2.73;;
4601;SDS011;2313;48.552;9.370;2023-09-18T05:27:50;7.70;;;2.70;;
4601;SDS011;2313;48.552;9.370;2023-09-18T05:30:28;6.73;;;2.50;;
4601;SDS011;2313;48.552;9.370;2023-09-18T05:32:57;7.83;;;2.23;;
4601;SDS011;2313;48.552;9.370;2023-09-18T05:35:29;10.97;;;2.43;;
4601;SDS011;2313;48.552;9.370;2023-09-18T05:38:21;13.23;;;2.80;;
4601;SDS011;2313;48.552;9.370;2023-09-18T05:40:47;9.00;;;2.50;;
4601;SDS011;2313;48.552;9.370;2023-09-18T05:43:12;7.00;;;2.10;;
4601;SDS011;2313;48.552;9.370;2023-09-18T05:45:39;11.67;;;3.00;;
4601;SDS011;2313;48.552;9.370;2023-09-18T05:48:05;6.10;;;1.80;;
4601;SDS011;2313;48.552;9.370;2023-09-18T05:50:31;9.40;;;2.10;;
4601;SDS011;2313;48.552;9.370;2023-09-18T05:52:58;8.23;;;1.50;;
4601;SDS011;2313;48.552;9.370;2023-09-18T05:55:24;9.73;;;2.13;;
4601;SDS011;2313;48.552;9.370;2023-09-18T05:57:54;12.07;;;1.60;;
4601;SDS011;2313;48.552;9.370;2023-09-18T06:00:19;8.30;;;1.97;;
4601;SDS011;2313;48.552;9.370;2023-09-18T06:02:46;5.90;;;1.40;;
4601;SDS011;2313;48.552;9.370;2023-09-18T06:05:12;7.57;;;1.40;;
4601;SDS011;2313;48.552;9.370;2023-09-18T06:07:40;5.33;;;1.60;;
4601;SDS011;2313;48.552;9.370;2023-09-18T06:10:06;8.73;;;1.83;;
4601;SDS011;2313;48.552;9.370;2023-09-18T06:12:32;9.53;;;1.73;;
4601;SDS011;2313;48.552;9.370;2023-09-18T06:14:58;5.00;;;1.60;;
4601;SDS011;2313;48.552;9.370;2023-09-18T06:17:23;8.77;;;1.70;;
4601;SDS011;2313;48.552;9.370;2023-09-18T06:19:49;12.17;;;1.50;;
4601;SDS011;2313;48.552;9.370;2023-09-18T06:22:15;4.17;;;1.87;;
4601;SDS011;2313;48.552;9.370;2023-09-18T06:24:42;3.90;;;1.33;;
4601;SDS011;2313;48.552;9.370;2023-09-18T06:27:08;6.50;;;1.97;;
4601;SDS011;2313;48.552;9.370;2023-09-18T06:29:33;8.67;;;2.00;;
4601;SDS011;2313;48.552;9.370;2023-09-18T06:31:59;4.47;;;1.40;;
4601;SDS011;2313;48.552;9.370;2023-09-18T06:34:26;3.80;;;1.60;;
4601;SDS011;2313;48.552;9.370;2023-09-18T06:36:53;7.00;;;1.63;;
4601;SDS011;2313;48.552;9.370;2023-09-18T06:39:18;6.30;;;1.53;;
4601;SDS011;2313;48.552;9.370;2023-09-18T06:41:45;6.60;;;1.77;;
4601;SDS011;2313;48.552;9.370;2023-09-18T06:44:11;3.63;;;1.47;;
4601;SDS011;2313;48.552;9.370;2023-09-18T06:46:36;9.30;;;2.27;;
4601;SDS011;2313;48.552;9.370;2023-09-18T06:49:02;7.40;;;1.67;;
4601;SDS011;2313;48.552;9.370;2023-09-18T06:51:28;5.83;;;1.47;;
4601;SDS011;2313;48.552;9.370;2023-09-18T06:53:54;8.30;;;4.40;;
4601;SDS011;2313;48.552;9.370;2023-09-18T06:56:22;6.87;;;2.50;;
4601;SDS011;2313;48.552;9.370;2023-09-18T06:58:50;5.80;;;2.03;;
4601;SDS011;2313;48.552;9.370;2023-09-18T07:01:19;5.87;;;2.27;;
4601;SDS011;2313;48.552;9.370;2023-09-18T07:03:46;9.00;;;2.07;;
4601;SDS011;2313;48.552;9.370;2023-09-18T07:06:13;6.67;;;1.93;;
4601;SDS011;2313;48.552;9.370;2023-09-18T07:08:43;5.60;;;2.03;;
4601;SDS011;2313;48.552;9.370;2023-09-18T07:11:09;16.87;;;2.80;;
4601;SDS011;2313;48.552;9.370;2023-09-18T07:13:35;13.07;;;3.20;;
4601;SDS011;2313;48.552;9.370;2023-09-18T07:16:01;7.87;;;1.77;;
4601;SDS011;2313;48.552;9.370;2023-09-18T07:18:29;6.23;;;2.00;;
4601;SDS011;2313;48.552;9.370;2023-09-18T07:20:54;8.57;;;1.77;;
4601;SDS011;2313;48.552;9.370;2023-09-18T07:23:20;6.33;;;1.50;;
4601;SDS011;2313;48.552;9.370;2023-09-18T07:25:47;8.40;;;2.13;;
4601;SDS011;2313;48.552;9.370;2023-09-18T07:28:13;9.43;;;2.20;;
4601;SDS011;2313;48.552;9.370;2023-09-18T07:30:42;7.83;;;2.17;;
4601;SDS011;2313;48.552;9.370;2023-09-18T07:33:11;5.40;;;2.00;;
4601;SDS011;2313;48.552;9.370;2023-09-18T07:35:37;12.80;;;2.70;;
4601;SDS011;2313;48.552;9.370;2023-09-18T07:38:03;11.63;;;2.43;;
4601;SDS011;2313;48.552;9.370;2023-09-18T07:40:29;7.90;;;2.17;;
4601;SDS011;2313;48.552;9.370;2023-09-18T07:42:55;15.63;;;2.90;;
4601;SDS011;2313;48.552;9.370;2023-09-18T07:45:23;9.33;;;1.90;;
4601;SDS011;2313;48.552;9.370;2023-09-18T07:47:49;10.47;;;1.90;;
4601;SDS011;2313;48.552;9.370;2023-09-18T07:50:14;9.83;;;2.27;;
4601;SDS011;2313;48.552;9.370;2023-09-18T07:52:40;10.33;;;2.37;;
4601;SDS011;2313;48.552;9.370;2023-09-18T07:55:06;5.20;;;1.50;;
4601;SDS011;2313;48.552;9.370;2023-09-18T07:57:32;7.80;;;1.83;;
4601;SDS011;2313;48.552;9.370;2023-09-18T07:59:59;11.43;;;2.40;;
4601;SDS011;2313;48.552;9.370;2023-09-18T08:02:31;6.30;;;2.67;;
4601;SDS011;2313;48.552;9.370;2023-09-18T08:04:57;13.30;;;1.90;;
4601;SDS011;2313;48.552;9.370;2023-09-18T08:07:23;4.27;;;2.00;;
4601;SDS011;2313;48.552;9.370;2023-09-18T08:09:48;8.70;;;2.03;;
4601;SDS011;2313;48.552;9.370;2023-09-18T08:12:14;7.40;;;1.80;;
4601;SDS011;2313;48.552;9.370;2023-09-18T08:14:40;5.73;;;1.70;;
4601;SDS011;2313;48.552;9.370;2023-09-18T08:17:05;14.97;;;2.17;;
4601;SDS011;2313;48.552;9.370;2023-09-18T08:19:32;8.57;;;1.53;;
4601;SDS011;2313;48.552;9.370;2023-09-18T08:21:58;5.73;;;1.80;;
4601;SDS011;2313;48.552;9.370;2023-09-18T08:24:26;6.73;;;1.60;;
4601;SDS011;2313;48.552;9.370;2023-09-18T08:26:52;6.60;;;2.00;;
4601;SDS011;2313;48.552;9.370;2023-09-18T08:29:18;12.33;;;2.23;;
4601;SDS011;2313;48.552;9.370;2023-09-18T08:31:44;6.30;;;1.70;;
4601;SDS011;2313;48.552;9.370;2023-09-18T08:34:09;6.20;;;1.77;;
4601;SDS011;2313;48.552;9.370;2023-09-18T08:36:35;10.83;;;1.97;;
4601;SDS011;2313;48.552;9.370;2023-09-18T08:39:01;7.60;;;1.37;;
4601;SDS011;2313;48.552;9.370;2023-09-18T08:41:30;8.37;;;1.53;;
4601;SDS011;2313;48.552;9.370;2023-09-18T08:44:00;5.27;;;1.70;;
4601;SDS011;2313;48.552;9.370;2023-09-18T08:46:28;3.77;;;1.13;;
4601;SDS011;2313;48.552;9.370;2023-09-18T08:48:55;5.57;;;1.20;;
4601;SDS011;2313;48.552;9.370;2023-09-18T08:51:23;1.70;;;1.30;;
4601;SDS011;2313;48.552;9.370;2023-09-18T08:53:49;3.50;;;1.20;;
4601;SDS011;2313;48.552;9.370;2023-09-18T08:56:16;12.70;;;1.70;;
4601;SDS011;2313;48.552;9.370;2023-09-18T08:58:42;7.70;;;1.10;;
4601;SDS011;2313;48.552;9.370;2023-09-18T09:01:09;3.20;;;1.20;;
4601;SDS011;2313;48.552;9.370;2023-09-18T09:03:39;4.87;;;1.30;;
4601;SDS011;2313;48.552;9.370;2023-09-18T09:06:06;7.40;;;1.10;;
4601;SDS011;2313;48.552;9.370;2023-09-18T09:08:33;5.30;;;1.20;;
4601;SDS011;2313;48.552;9.370;2023-09-18T09:10:59;1.67;;;0.83;;
4601;SDS011;2313;48.552;9.370;2023-09-18T09:13:25;4.07;;;1.20;;
4601;SDS011;2313;48.552;9.370;2023-09-18T09:15:55;2.30;;;0.90;;
4601;SDS011;2313;48.552;9.370;2023-09-18T09:18:23;3.17;;;1.07;;
4601;SDS011;2313;48.552;9.370;2023-09-18T09:23:23;2.27;;;0.87;;
4601;SDS011;2313;48.552;9.370;2023-09-18T09:25:49;0.90;;;0.60;;
4601;SDS011;2313;48.552;9.370;2023-09-18T09:28:15;3.00;;;0.70;;
4601;SDS011;2313;48.552;9.370;2023-09-18T09:30:43;1.10;;;0.80;;
4601;SDS011;2313;48.552;9.370;2023-09-18T09:33:11;5.37;;;0.80;;
4601;SDS011;2313;48.552;9.370;2023-09-18T09:35:38;3.50;;;1.10;;
4601;SDS011;2313;48.552;9.370;2023-09-18T09:38:07;3.83;;;0.97;;
4601;SDS011;2313;48.552;9.370;2023-09-18T09:40:35;2.03;;;0.70;;
4601;SDS011;2313;48.552;9.370;2023-09-18T09:43:03;2.30;;;1.20;;
4601;SDS011;2313;48.552;9.370;2023-09-18T09:45:30;2.47;;;1.30;;
4601;SDS011;2313;48.552;9.370;2023-09-18T09:48:00;1.30;;;1.00;;
4601;SDS011;2313;48.552;9.370;2023-09-18T09:50:27;2.53;;;0.90;;
4601;SDS011;2313;48.552;9.370;2023-09-18T09:52:54;1.40;;;0.70;;
4601;SDS011;2313;48.552;9.370;2023-09-18T09:55:24;1.10;;;0.80;;
4601;SDS011;2313;48.552;9.370;2023-09-18T09:58:02;3.00;;;0.80;;
4601;SDS011;2313;48.552;9.370;2023-09-18T10:00:33;3.10;;;0.73;;
4601;SDS011;2313;48.552;9.370;2023-09-18T10:03:15;4.30;;;0.87;;
4601;SDS011;2313;48.552;9.370;2023-09-18T10:05:45;2.07;;;1.00;;
4601;SDS011;2313;48.552;9.370;2023-09-18T10:08:12;2.03;;;0.80;;
4601;SDS011;2313;48.552;9.370;2023-09-18T10:10:43;1.77;;;1.03;;
4601;SDS011;2313;48.552;9.370;2023-09-18T10:13:15;2.50;;;0.90;;
4601;SDS011;2313;48.552;9.370;2023-09-18T10:15:42;2.37;;;1.00;;
4601;SDS011;2313;48.552;9.370;2023-09-18T10:21:13;1.10;;;0.70;;
4601;SDS011;2313;48.552;9.370;2023-09-18T10:24:04;1.90;;;0.80;;
4601;SDS011;2313;48.552;9.370;2023-09-18T10:26:44;2.30;;;0.70;;
4601;SDS011;2313;48.552;9.370;2023-09-18T10:29:16;1.30;;;0.73;;
4601;SDS011;2313;48.552;9.370;2023-09-18T10:31:44;7.00;;;0.60;;
4601;SDS011;2313;48.552;9.370;2023-09-18T10:34:12;2.60;;;0.70;;
4601;SDS011;2313;48.552;9.370;2023-09-18T10:36:41;2.50;;;0.70;;
4601;SDS011;2313;48.552;9.370;2023-09-18T10:39:06;1.73;;;0.73;;
4601;SDS011;2313;48.552;9.370;2023-09-18T10:41:37;2.17;;;1.10;;
4601;SDS011;2313;48.552;9.370;2023-09-18T10:44:04;1.87;;;1.30;;
4601;SDS011;2313;48.552;9.370;2023-09-18T10:46:31;3.53;;;1.57;;
4601;SDS011;2313;48.552;9.370;2023-09-18T10:48:58;2.37;;;1.07;;
4601;SDS011;2313;48.552;9.370;2023-09-18T10:51:25;4.50;;;1.10;;
4601;SDS011;2313;48.552;9.370;2023-09-18T10:53:52;2.87;;;1.10;;
4601;SDS011;2313;48.552;9.370;2023-09-18T10:56:21;2.90;;;0.90;;
4601;SDS011;2313;48.552;9.370;2023-09-18T10:58:46;1.73;;;1.17;;
4601;SDS011;2313;48.552;9.370;2023-09-18T11:01:23;2.30;;;1.20;;
4601;SDS011;2313;48.552;9.370;2023-09-18T11:03:50;3.03;;;1.13;;
4601;SDS011;2313;48.552;9.370;2023-09-18T11:06:15;2.33;;;0.93;;
4601;SDS011;2313;48.552;9.370;2023-09-18T11:11:10;2.00;;;1.00;;
4601;SDS011;2313;48.552;9.370;2023-09-18T11:13:39;2.10;;;1.03;;
4601;SDS011;2313;48.552;9.370;2023-09-18T11:18:52;1.30;;;0.90;;
4601;SDS011;2313;48.552;9.370;2023-09-18T11:21:23;2.50;;;1.07;;
4601;SDS011;2313;48.552;9.370;2023-09-18T11:23:57;2.90;;;1.03;;
4601;SDS011;2313;48.552;9.370;2023-09-18T11:26:23;2.00;;;1.10;;
4601;SDS011;2313;48.552;9.370;2023-09-18T11:28:53;5.03;;;1.30;;
4601;SDS011;2313;48.552;9.370;2023-09-18T11:31:18;3.33;;;1.27;;
4601;SDS011;2313;48.552;9.370;2023-09-18T11:33:47;5.90;;;1.17;;
4601;SDS011;2313;48.552;9.370;2023-09-18T11:36:13;2.23;;;1.30;;
4601;SDS011;2313;48.552;9.370;2023-09-18T11:38:59;2.27;;;1.10;;
4601;SDS011;2313;48.552;9.370;2023-09-18T11:41:32;3.80;;;1.40;;
4601;SDS011;2313;48.552;9.370;2023-09-18T11:46:47;4.03;;;1.03;;
4601;SDS011;2313;48.552;9.370;2023-09-18T11:49:20;3.20;;;1.20;;
4601;SDS011;2313;48.552;9.370;2023-09-18T11:51:52;1.93;;;0.90;;
4601;SDS011;2313;48.552;9.370;2023-09-18T11:54:19;2.23;;;1.07;;
4601;SDS011;2313;48.552;9.370;2023-09-18T11:56:46;3.53;;;1.37;;
4601;SDS011;2313;48.552;9.370;2023-09-18T11:59:12;1.50;;;1.00;;
4601;SDS011;2313;48.552;9.370;2023-09-18T12:01:38;5.60;;;1.40;;
4601;SDS011;2313;48.552;9.370;2023-09-18T12:04:11;3.57;;;1.10;;
4601;SDS011;2313;48.552;9.370;2023-09-18T12:06:40;5.77;;;1.33;;
4601;SDS011;2313;48.552;9.370;2023-09-18T12:09:07;1.83;;;1.10;;
4601;SDS011;2313;48.552;9.370;2023-09-18T12:11:34;5.23;;;1.67;;
4601;SDS011;2313;48.552;9.370;2023-09-18T12:14:00;5.53;;;1.73;;
4601;SDS011;2313;48.552;9.370;2023-09-18T12:16:30;4.90;;;1.47;;
4601;SDS011;2313;48.552;9.370;2023-09-18T12:18:56;1.97;;;0.90;;
4601;SDS011;2313;48.552;9.370;2023-09-18T12:21:22;2.27;;;1.20;;
4601;SDS011;2313;48.552;9.370;2023-09-18T12:23:48;1.73;;;1.07;;
4601;SDS011;2313;48.552;9.370;2023-09-18T12:26:14;10.40;;;1.50;;
4601;SDS011;2313;48.552;9.370;2023-09-18T12:28:41;6.83;;;1.30;;
4601;SDS011;2313;48.552;9.370;2023-09-18T12:31:11;3.20;;;1.87;;
4601;SDS011;2313;48.552;9.370;2023-09-18T12:33:39;4.77;;;1.10;;
4601;SDS011;2313;48.552;9.370;2023-09-18T12:36:06;2.40;;;1.07;;
4601;SDS011;2313;48.552;9.370;2023-09-18T12:38:33;4.50;;;1.60;;
4601;SDS011;2313;48.552;9.370;2023-09-18T12:40:59;2.07;;;1.10;;
4601;SDS011;2313;48.552;9.370;2023-09-18T12:43:34;4.90;;;1.20;;
4601;SDS011;2313;48.552;9.370;2023-09-18T12:46:08;1.73;;;0.90;;
4601;SDS011;2313;48.552;9.370;2023-09-18T12:48:37;4.53;;;1.70;;
4601;SDS011;2313;48.552;9.370;2023-09-18T12:51:05;3.33;;;1.70;;
4601;SDS011;2313;48.552;9.370;2023-09-18T12:53:31;2.03;;;1.43;;
4601;SDS011;2313;48.552;9.370;2023-09-18T12:56:08;3.97;;;1.30;;
4601;SDS011;2313;48.552;9.370;2023-09-18T12:58:41;2.43;;;1.00;;
4601;SDS011;2313;48.552;9.370;2023-09-18T13:01:08;3.07;;;1.20;;
4601;SDS011;2313;48.552;9.370;2023-09-18T13:03:46;5.23;;;1.20;;
4601;SDS011;2313;48.552;9.370;2023-09-18T13:06:15;2.40;;;1.13;;
4601;SDS011;2313;48.552;9.370;2023-09-18T13:08:42;3.77;;;1.20;;
4601;SDS011;2313;48.552;9.370;2023-09-18T13:11:11;8.33;;;1.67;;
4601;SDS011;2313;48.552;9.370;2023-09-18T13:13:39;2.90;;;1.33;;
4601;SDS011;2313;48.552;9.370;2023-09-18T13:16:06;4.30;;;1.67;;
4601;SDS011;2313;48.552;9.370;2023-09-18T13:18:34;4.60;;;1.43;;
4601;SDS011;2313;48.552;9.370;2023-09-18T13:21:08;1.47;;;1.10;;
4601;SDS011;2313;48.552;9.370;2023-09-18T13:23:35;2.50;;;1.00;;
4601;SDS011;2313;48.552;9.370;2023-09-18T13:26:02;1.50;;;1.10;;
4601;SDS011;2313;48.552;9.370;2023-09-18T13:28:28;4.03;;;1.17;;
4601;SDS011;2313;48.552;9.370;2023-09-18T13:30:56;6.63;;;1.10;;
4601;SDS011;2313;48.552;9.370;2023-09-18T13:33:23;5.37;;;1.20;;
4601;SDS011;2313;48.552;9.370;2023-09-18T13:35:50;2.20;;;1.23;;
4601;SDS011;2313;48.552;9.370;2023-09-18T13:38:18;1.83;;;1.10;;
4601;SDS011;2313;48.552;9.370;2023-09-18T13:40:45;4.10;;;1.30;;
4601;SDS011;2313;48.552;9.370;2023-09-18T13:43:12;1.50;;;1.30;;
4601;SDS011;2313;48.552;9.370;2023-09-18T13:45:40;1.50;;;0.83;;
4601;SDS011;2313;48.552;9.370;2023-09-18T13:48:06;1.20;;;1.03;;
4601;SDS011;2313;48.552;9.370;2023-09-18T13:50:33;2.70;;;1.77;;
4601;SDS011;2313;48.552;9.370;2023-09-18T13:53:00;5.13;;;1.37;;
4601;SDS011;2313;48.552;9.370;2023-09-18T13:55:26;7.60;;;1.27;;
4601;SDS011;2313;48.552;9.370;2023-09-18T13:57:52;3.77;;;1.47;;
4601;SDS011;2313;48.552;9.370;2023-09-18T14:00:17;2.37;;;1.20;;
4601;SDS011;2313;48.552;9.370;2023-09-18T14:02:43;4.20;;;1.23;;
4601;SDS011;2313;48.552;9.370;2023-09-18T14:05:09;5.43;;;0.97;;
4601;SDS011;2313;48.552;9.370;2023-09-18T14:07:36;3.93;;;1.10;;
4601;SDS011;2313;48.552;9.370;2023-09-18T14:10:09;2.00;;;1.10;;
4601;SDS011;2313;48.552;9.370;2023-09-18T14:12:36;4.60;;;1.50;;
4601;SDS011;2313;48.552;9.370;2023-09-18T14:15:03;2.40;;;1.00;;
4601;SDS011;2313;48.552;9.370;2023-09-18T14:17:30;2.40;;;1.10;;
4601;SDS011;2313;48.552;9.370;2023-09-18T14:19:55;3.53;;;1.40;;
4601;SDS011;2313;48.552;9.370;2023-09-18T14:22:21;5.37;;;1.43;;
4601;SDS011;2313;48.552;9.370;2023-09-18T14:24:46;3.00;;;1.33;;
4601;SDS011;2313;48.552;9.370;2023-09-18T14:27:12;2.10;;;1.10;;
4601;SDS011;2313;48.552;9.370;2023-09-18T14:29:38;2.93;;;1.13;;
4601;SDS011;2313;48.552;9.370;2023-09-18T14:32:04;2.60;;;1.27;;
4601;SDS011;2313;48.552;9.370;2023-09-18T14:34:31;3.87;;;1.30;;
4601;SDS011;2313;48.552;9.370;2023-09-18T14:37:00;3.07;;;1.40;;
4601;SDS011;2313;48.552;9.370;2023-09-18T14:39:27;1.77;;;1.60;;
4601;SDS011;2313;48.552;9.370;2023-09-18T14:41:52;3.93;;;1.03;;
4601;SDS011;2313;48.552;9.370;2023-09-18T14:44:18;3.03;;;1.43;;
4601;SDS011;2313;48.552;9.370;2023-09-18T14:46:44;4.50;;;1.33;;
4601;SDS011;2313;48.552;9.370;2023-09-18T14:49:09;2.93;;;1.40;;
4601;SDS011;2313;48.552;9.370;2023-09-18T14:51:35;1.47;;;1.20;;
4601;SDS011;2313;48.552;9.370;2023-09-18T14:54:01;3.83;;;1.27;;
4601;SDS011;2313;48.552;9.370;2023-09-18T14:56:29;1.97;;;1.00;;
4601;SDS011;2313;48.552;9.370;2023-09-18T14:58:55;2.33;;;1.03;;
4601;SDS011;2313;48.552;9.370;2023-09-18T15:01:24;1.60;;;1.50;;
4601;SDS011;2313;48.552;9.370;2023-09-18T15:03:49;3.03;;;1.23;;
4601;SDS011;2313;48.552;9.370;2023-09-18T15:06:15;6.33;;;1.50;;
4601;SDS011;2313;48.552;9.370;2023-09-18T15:08:41;4.87;;;1.27;;
4601;SDS011;2313;48.552;9.370;2023-09-18T15:11:07;6.17;;;1.47;;
4601;SDS011;2313;48.552;9.370;2023-09-18T15:13:33;3.57;;;1.60;;
4601;SDS011;2313;48.552;9.370;2023-09-18T15:16:00;1.80;;;1.10;;
4601;SDS011;2313;48.552;9.370;2023-09-18T15:18:26;3.07;;;1.33;;
4601;SDS011;2313;48.552;9.370;2023-09-18T15:20:52;3.07;;;1.10;;
4601;SDS011;2313;48.552;9.370;2023-09-18T15:23:21;2.97;;;1.47;;
4601;SDS011;2313;48.552;9.370;2023-09-18T15:25:47;3.10;;;1.10;;